Time;durP1;ratioP1;P1;durP2;ratioP2;P2;SDS_P1;SDS_P2;PMS_P1;PMS_P2;Temp;Humidity;BMP_temperature;BMP_pressure;BME280_temperature;BME280_humidity;BME280_pressure;Samples;Min_cycle;Max_cycle;Signal;HPM_P1;HPM_P2
2021/12/24 07:08:46;;;;;;;5.20;2.10;;;;;;;;;;5103492;27;20397;-78
2021/12/24 07:11:12;;;;;;;8.30;2.00;;;;;;;;;;5080127;28;20028;-78
2021/12/24 07:13:38;;;;;;;5.63;1.75;;;;;;;;;;5108119;28;20423;-80
2021/12/24 07:16:03;;;;;;;4.97;1.80;;;;;;;;;;5099135;28;20050;-78
2021/12/24 07:18:29;;;;;;;13.05;1.63;;;;;;;;;;5089385;28;20035;-79
2021/12/24 07:20:54;;;;;;;10.45;1.90;;;;;;;;;;5108540;28;20054;-79
2021/12/24 07:23:20;;;;;;;8.57;2.20;;;;;;;;;;5101121;28;20143;-78
2021/12/24 07:25:46;;;;;;;19.65;2.08;;;;;;;;;;5090720;28;20115;-79
2021/12/24 07:28:11;;;;;;;6.22;1.85;;;;;;;;;;5092669;28;20032;-79
2021/12/24 07:30:37;;;;;;;8.57;2.03;;;;;;;;;;5087183;28;20524;-79
2021/12/24 07:33:03;;;;;;;5.47;2.38;;;;;;;;;;5088973;28;20039;-79
2021/12/24 07:35:28;;;;;;;7.88;2.00;;;;;;;;;;5106715;28;20034;-81
2021/12/24 07:37:53;;;;;;;8.15;2.03;;;;;;;;;;5083599;28;20432;-80
2021/12/24 07:40:19;;;;;;;7.97;1.92;;;;;;;;;;5100448;28;20039;-81
2021/12/24 07:42:47;;;;;;;9.20;2.42;;;;;;;;;;5094951;28;20030;-80
2021/12/24 07:45:13;;;;;;;8.73;2.38;;;;;;;;;;5092082;28;20058;-80
2021/12/24 07:47:42;;;;;;;8.55;2.28;;;;;;;;;;5074347;28;20032;-80
2021/12/24 07:53:05;;;;;;;;;;;;;;;;;;5085559;28;20105;-75
2021/12/24 07:55:31;;;;;;;7.28;1.50;;;;;;;;;;5101656;28;20219;-80
2021/12/24 07:57:56;;;;;;;6.88;1.80;;;;;;;;;;5092436;28;20111;-80
2021/12/24 08:00:25;;;;;;;6.00;1.80;;;;;;;;;;5086665;28;20043;-80
2021/12/24 08:02:51;;;;;;;4.72;1.80;;;;;;;;;;5095639;28;20038;-80
2021/12/24 08:05:19;;;;;;;5.82;1.80;;;;;;;;;;5106725;28;20072;-81
2021/12/24 08:07:45;;;;;;;5.78;2.13;;;;;;;;;;5087679;28;20059;-80
2021/12/24 08:10:10;;;;;;;7.13;2.30;;;;;;;;;;5105194;28;20056;-80
2021/12/24 08:12:35;;;;;;;5.95;1.98;;;;;;;;;;5104899;28;20169;-78
2021/12/24 08:15:01;;;;;;;5.40;2.00;;;;;;;;;;5104988;28;20027;-78
2021/12/24 08:17:26;;;;;;;5.75;1.52;;;;;;;;;;5088698;28;20451;-78
2021/12/24 08:19:52;;;;;;;7.50;2.25;;;;;;;;;;5093843;28;20153;-77
2021/12/24 08:22:17;;;;;;;6.45;2.08;;;;;;;;;;5091160;28;20031;-79
2021/12/24 08:24:42;;;;;;;6.43;1.70;;;;;;;;;;5084972;28;20139;-78
2021/12/24 08:27:08;;;;;;;5.78;2.35;;;;;;;;;;5073727;28;20027;-79
2021/12/24 08:29:34;;;;;;;5.95;1.63;;;;;;;;;;5074489;28;20028;-79
2021/12/24 08:32:03;;;;;;;5.03;1.80;;;;;;;;;;5076360;28;20028;-79
2021/12/24 08:34:28;;;;;;;4.75;1.38;;;;;;;;;;5089422;28;20505;-79
2021/12/24 08:36:54;;;;;;;6.05;1.73;;;;;;;;;;5079816;28;20063;-79
2021/12/24 08:39:21;;;;;;;4.57;1.60;;;;;;;;;;5082944;28;20459;-78
2021/12/24 08:41:52;;;;;;;4.13;1.70;;;;;;;;;;5086096;28;20062;-79
2021/12/24 08:44:18;;;;;;;5.20;2.22;;;;;;;;;;5089099;28;20031;-77
2021/12/24 08:46:43;;;;;;;6.13;2.22;;;;;;;;;;5092233;28;20058;-78
2021/12/24 08:49:08;;;;;;;4.78;1.65;;;;;;;;;;5079112;28;20028;-79
2021/12/24 08:51:34;;;;;;;4.03;1.88;;;;;;;;;;5072756;28;20028;-79
2021/12/24 08:53:59;;;;;;;3.42;1.70;;;;;;;;;;5056604;28;20037;-78
2021/12/24 08:56:25;;;;;;;4.35;1.42;;;;;;;;;;5077968;28;20036;-78
2021/12/24 08:58:50;;;;;;;4.70;1.50;;;;;;;;;;5076395;28;20037;-79
2021/12/24 09:01:16;;;;;;;5.35;1.95;;;;;;;;;;5072084;28;20049;-79
2021/12/24 09:03:42;;;;;;;8.98;1.90;;;;;;;;;;5089880;28;20145;-79
2021/12/24 09:06:07;;;;;;;5.75;1.73;;;;;;;;;;5086147;28;20123;-79
2021/12/24 09:08:34;;;;;;;5.70;1.90;;;;;;;;;;5076401;28;20074;-79
2021/12/24 09:11:00;;;;;;;4.35;1.50;;;;;;;;;;5069023;28;20470;-77
2021/12/24 09:13:25;;;;;;;5.43;1.67;;;;;;;;;;5076158;28;20042;-77
2021/12/24 09:15:53;;;;;;;7.15;1.70;;;;;;;;;;5080575;28;20040;-77
2021/12/24 09:18:19;;;;;;;6.38;1.85;;;;;;;;;;5071915;28;20039;-77
2021/12/24 09:20:46;;;;;;;4.43;1.55;;;;;;;;;;5072213;28;20062;-77
2021/12/24 09:23:12;;;;;;;4.55;1.70;;;;;;;;;;5054837;28;20108;-77
2021/12/24 09:25:38;;;;;;;3.78;1.70;;;;;;;;;;5072813;28;20451;-78
2021/12/24 09:28:04;;;;;;;4.85;2.08;;;;;;;;;;5084982;28;20024;-79
2021/12/24 09:30:30;;;;;;;3.72;1.50;;;;;;;;;;5074617;28;20036;-79
2021/12/24 09:32:56;;;;;;;6.88;1.77;;;;;;;;;;5052045;28;20039;-80
2021/12/24 09:35:22;;;;;;;4.78;1.55;;;;;;;;;;5088523;28;20092;-78
2021/12/24 09:37:48;;;;;;;5.00;1.38;;;;;;;;;;5089783;28;20028;-80
2021/12/24 09:40:15;;;;;;;3.13;1.27;;;;;;;;;;5071840;28;20032;-81
2021/12/24 09:42:40;;;;;;;2.78;1.35;;;;;;;;;;5054872;28;20024;-81
2021/12/24 09:45:08;;;;;;;4.03;1.70;;;;;;;;;;5070507;28;20054;-79
2021/12/24 09:47:33;;;;;;;5.20;1.77;;;;;;;;;;5091172;28;20020;-79
2021/12/24 09:49:59;;;;;;;5.47;1.65;;;;;;;;;;5060857;28;20124;-79
2021/12/24 09:52:26;;;;;;;4.10;1.70;;;;;;;;;;5087452;28;20039;-80
2021/12/24 09:54:52;;;;;;;4.68;1.58;;;;;;;;;;5071700;28;20039;-79
2021/12/24 09:57:18;;;;;;;3.40;1.63;;;;;;;;;;5076007;28;20131;-80
2021/12/24 09:59:44;;;;;;;4.45;1.60;;;;;;;;;;5075227;28;20071;-79
2021/12/24 10:02:15;;;;;;;4.00;1.67;;;;;;;;;;5091328;28;20440;-80
2021/12/24 10:04:41;;;;;;;4.35;1.63;;;;;;;;;;5074887;28;20052;-82
2021/12/24 10:07:09;;;;;;;3.33;1.40;;;;;;;;;;5083885;28;20056;-80
2021/12/24 10:09:35;;;;;;;4.55;1.63;;;;;;;;;;5084099;28;20107;-80
2021/12/24 10:12:10;;;;;;;5.80;1.60;;;;;;;;;;5074369;28;20031;-80
2021/12/24 10:14:38;;;;;;;3.70;1.40;;;;;;;;;;5055251;28;20498;-78
2021/12/24 10:17:12;;;;;;;6.15;1.55;;;;;;;;;;5058135;28;20081;-80
2021/12/24 10:20:03;;;;;;;;;;;;;;;;;;5074016;28;20051;-80
2021/12/24 10:22:29;;;;;;;3.85;1.27;;;;;;;;;;5072138;28;20216;-80
2021/12/24 10:25:05;;;;;;;4.25;1.55;;;;;;;;;;5055534;28;20047;-81
2021/12/24 10:27:33;;;;;;;4.35;1.45;;;;;;;;;;5086945;28;20088;-78
2021/12/24 10:29:59;;;;;;;5.40;1.73;;;;;;;;;;5088998;28;20036;-78
2021/12/24 10:32:25;;;;;;;5.55;1.45;;;;;;;;;;5063840;28;20032;-81
2021/12/24 10:34:50;;;;;;;8.20;2.17;;;;;;;;;;5082266;28;20042;-78
2021/12/24 10:37:24;;;;;;;8.10;2.05;;;;;;;;;;5075278;28;20107;-79
2021/12/24 10:40:03;;;;;;;6.03;2.10;;;;;;;;;;5062109;28;20071;-80
2021/12/24 10:42:39;;;;;;;5.95;1.88;;;;;;;;;;5062143;28;20127;-81
2021/12/24 10:45:18;;;;;;;6.65;2.00;;;;;;;;;;5074528;28;20126;-83
2021/12/24 10:47:43;;;;;;;4.70;1.98;;;;;;;;;;5087221;28;20495;-79
2021/12/24 10:53:12;;;;;;;8.90;2.10;;;;;;;;;;5089193;28;20024;-79
2021/12/24 10:55:46;;;;;;;4.97;1.80;;;;;;;;;;5086220;28;20138;-78
2021/12/24 10:58:18;;;;;;;5.03;1.85;;;;;;;;;;5087628;28;20035;-77
2021/12/24 11:00:48;;;;;;;6.35;1.90;;;;;;;;;;5079048;28;20102;-78
2021/12/24 11:03:20;;;;;;;8.73;1.92;;;;;;;;;;5077735;28;20042;-79
2021/12/24 11:05:47;;;;;;;4.68;1.52;;;;;;;;;;5079442;28;20028;-80
2021/12/24 11:08:18;;;;;;;5.20;1.67;;;;;;;;;;5074269;28;20067;-79
2021/12/24 11:10:54;;;;;;;5.88;1.70;;;;;;;;;;5086119;28;20442;-79
2021/12/24 11:13:28;;;;;;;5.78;1.80;;;;;;;;;;5079005;28;20394;-80
2021/12/24 11:15:53;;;;;;;6.18;1.83;;;;;;;;;;5072041;28;20093;-80
2021/12/24 11:18:27;;;;;;;5.68;1.80;;;;;;;;;;5076252;28;20518;-78
2021/12/24 11:21:06;;;;;;;8.02;2.15;;;;;;;;;;5070426;28;20028;-78
2021/12/24 11:23:34;;;;;;;3.58;1.40;;;;;;;;;;5089006;28;20049;-77
2021/12/24 11:26:05;;;;;;;4.60;1.80;;;;;;;;;;5062307;28;20051;-78
2021/12/24 11:28:31;;;;;;;3.50;1.58;;;;;;;;;;5091095;28;20024;-79
2021/12/24 11:31:00;;;;;;;8.98;1.90;;;;;;;;;;5092351;28;20131;-81
2021/12/24 11:33:30;;;;;;;6.07;1.83;;;;;;;;;;5074098;28;20032;-81
2021/12/24 11:35:58;;;;;;;6.18;1.73;;;;;;;;;;5090699;28;20027;-80
2021/12/24 11:38:29;;;;;;;7.78;1.80;;;;;;;;;;5092177;28;20122;-81
2021/12/24 11:40:56;;;;;;;4.40;2.08;;;;;;;;;;5074114;28;20052;-78
2021/12/24 11:43:26;;;;;;;7.13;1.90;;;;;;;;;;5091971;28;20336;-77
2021/12/24 11:45:51;;;;;;;7.15;2.17;;;;;;;;;;5090540;28;20024;-78
2021/12/24 11:48:17;;;;;;;6.63;1.80;;;;;;;;;;5090124;28;20038;-78
2021/12/24 11:50:43;;;;;;;4.50;1.65;;;;;;;;;;5090239;28;20032;-79
2021/12/24 11:53:11;;;;;;;4.70;1.73;;;;;;;;;;5091339;28;20036;-78
2021/12/24 11:55:42;;;;;;;3.55;1.70;;;;;;;;;;5094201;28;20031;-77
2021/12/24 11:58:16;;;;;;;3.63;1.60;;;;;;;;;;5094048;28;20157;-77
2021/12/24 12:00:44;;;;;;;5.55;1.60;;;;;;;;;;5076909;28;20055;-77
2021/12/24 12:03:10;;;;;;;4.68;1.60;;;;;;;;;;5076884;28;20063;-77
2021/12/24 12:05:41;;;;;;;5.35;1.70;;;;;;;;;;5095563;28;20036;-87
2021/12/24 12:08:25;;;;;;;4.28;1.67;;;;;;;;;;5093667;28;20059;-79
2021/12/24 12:10:56;;;;;;;4.72;1.80;;;;;;;;;;5095081;28;20363;-80
2021/12/24 12:13:49;;;;;;;3.28;1.70;;;;;;;;;;5095870;28;20111;-82
2021/12/24 12:16:27;;;;;;;4.70;1.45;;;;;;;;;;5095078;28;20020;-79
2021/12/24 12:19:21;;;;;;;4.60;1.77;;;;;;;;;;5094112;28;20130;-80
2021/12/24 12:24:57;;;;;;;3.53;1.40;;;;;;;;;;5095197;28;20110;-80
2021/12/24 12:27:39;;;;;;;3.30;1.40;;;;;;;;;;5095572;28;20046;-80
2021/12/24 12:30:17;;;;;;;5.10;1.58;;;;;;;;;;5096891;28;20047;-81
2021/12/24 12:32:43;;;;;;;3.25;1.45;;;;;;;;;;5095932;28;20489;-80
2021/12/24 12:35:09;;;;;;;3.85;1.83;;;;;;;;;;5078716;28;20032;-79
2021/12/24 12:37:54;;;;;;;5.20;1.58;;;;;;;;;;5094142;28;20093;-84
2021/12/24 12:40:19;;;;;;;5.68;1.95;;;;;;;;;;5096362;28;20466;-82
2021/12/24 12:42:56;;;;;;;2.80;1.50;;;;;;;;;;5095880;28;20031;-82
2021/12/24 12:45:44;;;;;;;2.30;1.40;;;;;;;;;;5095638;28;20020;-83
2021/12/24 12:48:13;;;;;;;6.47;1.50;;;;;;;;;;5096012;28;20471;-82
2021/12/24 12:50:47;;;;;;;4.03;1.23;;;;;;;;;;5096617;28;20066;-82
2021/12/24 12:53:35;;;;;;;3.53;1.63;;;;;;;;;;5080610;28;20024;-82
2021/12/24 12:56:22;;;;;;;3.13;1.30;;;;;;;;;;5096349;28;20107;-82
2021/12/24 12:59:08;;;;;;;3.35;1.42;;;;;;;;;;5095696;28;20406;-83
2021/12/24 13:01:49;;;;;;;5.22;1.50;;;;;;;;;;5093695;28;20043;-82
2021/12/24 13:04:15;;;;;;;2.40;1.30;;;;;;;;;;5096712;28;20055;-81
2021/12/24 13:06:41;;;;;;;2.15;1.20;;;;;;;;;;5098598;28;20066;-81
2021/12/24 13:09:21;;;;;;;3.35;1.27;;;;;;;;;;5099355;28;20024;-82
2021/12/24 13:11:49;;;;;;;3.17;1.58;;;;;;;;;;5097376;28;20424;-82
2021/12/24 13:14:16;;;;;;;1.73;0.95;;;;;;;;;;5098319;28;20174;-81
2021/12/24 13:16:46;;;;;;;3.55;1.10;;;;;;;;;;5094621;28;20127;-81
2021/12/24 13:19:25;;;;;;;5.63;1.38;;;;;;;;;;5094552;28;20027;-82
2021/12/24 13:24:40;;;;;;;1.90;1.13;;;;;;;;;;5095420;28;20035;-82
2021/12/24 13:27:06;;;;;;;2.25;1.40;;;;;;;;;;5094615;28;20024;-82
2021/12/24 13:29:31;;;;;;;3.38;1.30;;;;;;;;;;5076496;28;20028;-81
2021/12/24 13:31:57;;;;;;;1.45;1.05;;;;;;;;;;5094253;28;20119;-82
2021/12/24 13:34:24;;;;;;;2.13;1.25;;;;;;;;;;5092558;28;20020;-82
2021/12/24 13:36:50;;;;;;;2.50;1.10;;;;;;;;;;5092649;28;20024;-82
2021/12/24 13:39:19;;;;;;;2.67;1.42;;;;;;;;;;5093718;28;20045;-82
2021/12/24 13:41:45;;;;;;;1.92;1.30;;;;;;;;;;5093135;28;20016;-82
2021/12/24 13:44:29;;;;;;;2.30;1.10;;;;;;;;;;5092616;28;20032;-82
2021/12/24 13:47:11;;;;;;;2.38;1.02;;;;;;;;;;5093380;28;20401;-81
2021/12/24 13:54:48;;;;;;;8.32;1.50;;;;;;;;;;5092889;28;20035;-83
2021/12/24 13:57:16;;;;;;;3.03;1.20;;;;;;;;;;5088806;28;20050;-80
2021/12/24 13:59:42;;;;;;;2.55;1.40;;;;;;;;;;5073624;28;20028;-80
2021/12/24 14:02:09;;;;;;;3.72;1.20;;;;;;;;;;5063111;28;20081;-80
2021/12/24 14:04:35;;;;;;;2.25;1.10;;;;;;;;;;5059380;28;20058;-81
2021/12/24 14:07:01;;;;;;;4.65;1.52;;;;;;;;;;5088333;28;20053;-83
2021/12/24 14:09:30;;;;;;;2.33;1.02;;;;;;;;;;5064686;28;20028;-81
2021/12/24 14:11:57;;;;;;;1.67;1.20;;;;;;;;;;5071036;28;20032;-80
2021/12/24 14:14:27;;;;;;;1.42;1.00;;;;;;;;;;5071019;28;20083;-80
2021/12/24 14:19:44;;;;;;;5.45;1.13;;;;;;;;;;5074783;28;20090;-80
2021/12/24 14:22:11;;;;;;;2.35;1.40;;;;;;;;;;5071649;28;20054;-82
2021/12/24 14:24:38;;;;;;;1.98;1.25;;;;;;;;;;5083494;28;20471;-82
2021/12/24 14:27:06;;;;;;;3.65;1.60;;;;;;;;;;5061887;28;20047;-81
2021/12/24 14:29:34;;;;;;;5.25;1.92;;;;;;;;;;5071856;28;20098;-81
2021/12/24 14:32:15;;;;;;;8.13;1.80;;;;;;;;;;5092202;28;20046;-81
2021/12/24 14:34:49;;;;;;;5.05;1.90;;;;;;;;;;5083284;28;20016;-80
2021/12/24 14:37:28;;;;;;;4.47;1.50;;;;;;;;;;5058163;28;20040;-80
2021/12/24 14:39:57;;;;;;;4.07;1.52;;;;;;;;;;5070195;28;20048;-80
2021/12/24 14:42:28;;;;;;;3.80;1.85;;;;;;;;;;5088664;28;20031;-83
2021/12/24 14:45:12;;;;;;;4.40;1.50;;;;;;;;;;5088407;28;20546;-81
2021/12/24 14:47:39;;;;;;;3.47;1.83;;;;;;;;;;5090647;28;20073;-81
2021/12/24 14:50:10;;;;;;;4.97;1.27;;;;;;;;;;5074611;28;20107;-83
2021/12/24 14:52:36;;;;;;;2.95;1.30;;;;;;;;;;5066616;28;20523;-83
2021/12/24 14:55:24;;;;;;;3.10;1.20;;;;;;;;;;5071516;28;20041;-83
2021/12/24 14:57:53;;;;;;;2.10;1.35;;;;;;;;;;5075642;28;20050;-83
2021/12/24 15:00:24;;;;;;;1.90;1.17;;;;;;;;;;5088883;28;20020;-84
2021/12/24 15:02:50;;;;;;;2.67;1.13;;;;;;;;;;5086494;28;20093;-81
2021/12/24 15:05:37;;;;;;;2.35;1.08;;;;;;;;;;5086656;28;20033;-80
2021/12/24 15:08:23;;;;;;;1.75;1.08;;;;;;;;;;5081292;28;20048;-82
2021/12/24 15:11:08;;;;;;;1.75;1.25;;;;;;;;;;5086552;28;20107;-83
2021/12/24 15:13:35;;;;;;;2.75;1.30;;;;;;;;;;5071094;28;20032;-84
2021/12/24 15:16:01;;;;;;;3.38;1.05;;;;;;;;;;5088130;28;20109;-83
2021/12/24 15:18:27;;;;;;;2.50;1.20;;;;;;;;;;5058173;28;20788;-82
2021/12/24 15:20:53;;;;;;;1.27;1.00;;;;;;;;;;5084851;28;20032;-82
2021/12/24 15:23:19;;;;;;;2.00;1.23;;;;;;;;;;5063940;28;20028;-82
2021/12/24 15:25:49;;;;;;;1.17;1.05;;;;;;;;;;5074957;28;20024;-81
2021/12/24 15:28:19;;;;;;;1.10;1.00;;;;;;;;;;5078686;28;20058;-80
2021/12/24 15:30:45;;;;;;;1.23;1.10;;;;;;;;;;5081114;28;20532;-80
2021/12/24 15:33:10;;;;;;;1.83;0.95;;;;;;;;;;5071066;28;20123;-80
2021/12/24 15:35:37;;;;;;;1.02;1.00;;;;;;;;;;5084278;28;20107;-80
2021/12/24 15:38:04;;;;;;;1.65;0.80;;;;;;;;;;5057303;28;20040;-80
2021/12/24 15:40:30;;;;;;;0.98;0.90;;;;;;;;;;5091041;28;20428;-80
2021/12/24 15:43:00;;;;;;;1.27;1.10;;;;;;;;;;5096154;28;20043;-83
2021/12/24 15:45:26;;;;;;;1.30;0.98;;;;;;;;;;5096297;28;20039;-80
2021/12/24 15:47:52;;;;;;;1.20;1.00;;;;;;;;;;5098236;28;20028;-81
2021/12/24 15:50:17;;;;;;;2.20;1.00;;;;;;;;;;5095121;28;20126;-79
2021/12/24 15:52:43;;;;;;;1.20;0.90;;;;;;;;;;5077854;28;20043;-83
2021/12/24 15:55:08;;;;;;;0.90;0.90;;;;;;;;;;5096520;28;20034;-79
2021/12/24 15:57:34;;;;;;;1.75;0.90;;;;;;;;;;5095981;28;20048;-80
2021/12/24 15:59:59;;;;;;;1.10;1.00;;;;;;;;;;5095004;28;20427;-80
2021/12/24 16:02:24;;;;;;;6.05;1.77;;;;;;;;;;5096587;28;20028;-81
2021/12/24 16:04:50;;;;;;;1.70;1.13;;;;;;;;;;5096364;28;20031;-82
2021/12/24 16:07:15;;;;;;;3.13;1.30;;;;;;;;;;5095466;28;20516;-81
2021/12/24 16:09:41;;;;;;;3.50;1.52;;;;;;;;;;5096129;28;20028;-84
2021/12/24 16:12:07;;;;;;;1.75;1.00;;;;;;;;;;5096287;28;20028;-83
2021/12/24 16:14:32;;;;;;;1.73;1.30;;;;;;;;;;5096279;28;20031;-82
2021/12/24 16:16:58;;;;;;;1.73;1.20;;;;;;;;;;5077885;28;20024;-82
2021/12/24 16:19:23;;;;;;;2.22;1.20;;;;;;;;;;5094228;28;20024;-82
2021/12/24 16:21:50;;;;;;;2.85;1.23;;;;;;;;;;5095676;28;20032;-81
2021/12/24 16:24:16;;;;;;;2.60;1.15;;;;;;;;;;5077391;28;20097;-82
2021/12/24 16:26:42;;;;;;;2.65;1.05;;;;;;;;;;5094357;28;20081;-82
2021/12/24 16:29:08;;;;;;;1.30;1.10;;;;;;;;;;5079992;28;20379;-82
2021/12/24 16:31:35;;;;;;;2.00;0.93;;;;;;;;;;5095991;28;20043;-82
2021/12/24 16:34:01;;;;;;;3.35;1.10;;;;;;;;;;5094998;28;20050;-82
2021/12/24 16:36:26;;;;;;;2.75;1.33;;;;;;;;;;5097654;28;20032;-80
2021/12/24 16:38:52;;;;;;;1.75;1.40;;;;;;;;;;5096282;28;20528;-81
2021/12/24 16:41:17;;;;;;;3.65;1.45;;;;;;;;;;5094839;28;20035;-81
2021/12/24 16:43:43;;;;;;;2.70;1.10;;;;;;;;;;5093449;28;20045;-81
2021/12/24 16:46:08;;;;;;;1.67;1.13;;;;;;;;;;5104355;28;20024;-80
2021/12/24 16:48:34;;;;;;;3.50;1.27;;;;;;;;;;5094448;28;20024;-81
2021/12/24 16:50:59;;;;;;;1.75;1.17;;;;;;;;;;5094424;28;20366;-80
2021/12/24 16:53:24;;;;;;;1.42;1.00;;;;;;;;;;5094559;28;20032;-81
2021/12/24 16:55:50;;;;;;;1.67;1.05;;;;;;;;;;5094542;28;20020;-80
2021/12/24 16:58:16;;;;;;;2.97;1.30;;;;;;;;;;5076123;28;20509;-81
2021/12/24 17:00:48;;;;;;;1.90;1.08;;;;;;;;;;5076563;28;20077;-81
2021/12/24 17:03:13;;;;;;;1.10;1.00;;;;;;;;;;5093000;28;20028;-82
2021/12/24 17:05:39;;;;;;;2.60;0.95;;;;;;;;;;5094506;28;20119;-81
2021/12/24 17:08:06;;;;;;;1.75;1.00;;;;;;;;;;5076016;28;20062;-82
2021/12/24 17:10:33;;;;;;;0.93;0.90;;;;;;;;;;5094799;28;20028;-82
2021/12/24 17:12:59;;;;;;;1.50;1.00;;;;;;;;;;5094623;28;20467;-81
2021/12/24 17:15:25;;;;;;;1.00;0.90;;;;;;;;;;5093708;28;20172;-81
2021/12/24 17:17:50;;;;;;;1.38;0.93;;;;;;;;;;5094377;28;20032;-82
2021/12/24 17:20:17;;;;;;;2.60;1.10;;;;;;;;;;5093146;28;20036;-80
2021/12/24 17:22:43;;;;;;;1.90;1.20;;;;;;;;;;5094206;28;20035;-80
2021/12/24 17:25:11;;;;;;;1.42;1.10;;;;;;;;;;5093035;28;20106;-80
2021/12/24 17:27:37;;;;;;;2.20;1.40;;;;;;;;;;5093652;28;20020;-80
2021/12/24 17:30:05;;;;;;;0.90;0.90;;;;;;;;;;5093454;28;20051;-80
2021/12/24 17:32:30;;;;;;;1.23;1.00;;;;;;;;;;5094941;28;20502;-80
2021/12/24 17:34:55;;;;;;;2.50;1.20;;;;;;;;;;5093273;28;20039;-80
2021/12/24 17:37:22;;;;;;;1.10;0.90;;;;;;;;;;5095267;28;20028;-80
2021/12/24 17:39:47;;;;;;;2.05;1.30;;;;;;;;;;5093600;28;20028;-80
2021/12/24 17:42:13;;;;;;;1.75;1.08;;;;;;;;;;5095178;28;20085;-80
2021/12/24 17:44:38;;;;;;;1.90;1.00;;;;;;;;;;5075961;28;20028;-81
2021/12/24 17:47:05;;;;;;;0.98;0.88;;;;;;;;;;5076837;28;20020;-80
2021/12/24 17:49:32;;;;;;;2.83;1.13;;;;;;;;;;5093768;28;20024;-80
2021/12/24 17:52:00;;;;;;;0.90;0.90;;;;;;;;;;5074521;28;20032;-80
2021/12/24 17:54:25;;;;;;;1.10;1.00;;;;;;;;;;5092168;28;20119;-80
2021/12/24 17:56:51;;;;;;;2.38;1.10;;;;;;;;;;5091986;28;20020;-80
2021/12/24 17:59:16;;;;;;;1.15;1.00;;;;;;;;;;5093254;28;20342;-81
2021/12/24 18:01:42;;;;;;;1.85;1.00;;;;;;;;;;5093524;28;20024;-81
2021/12/24 18:04:07;;;;;;;1.20;1.10;;;;;;;;;;5093696;28;20044;-80
2021/12/24 18:06:32;;;;;;;1.45;1.15;;;;;;;;;;5092049;28;20141;-80
2021/12/24 18:08:58;;;;;;;1.42;1.20;;;;;;;;;;5091460;28;20429;-80
2021/12/24 18:11:24;;;;;;;1.30;1.00;;;;;;;;;;5093871;28;20097;-80
2021/12/24 18:13:50;;;;;;;1.42;0.93;;;;;;;;;;5092734;28;20059;-80
2021/12/24 18:16:19;;;;;;;1.10;1.00;;;;;;;;;;5094163;28;20525;-80
2021/12/24 18:18:45;;;;;;;0.98;0.90;;;;;;;;;;5094398;28;20028;-79
2021/12/24 18:21:11;;;;;;;1.02;0.93;;;;;;;;;;5093297;28;20386;-81
2021/12/24 18:23:38;;;;;;;3.17;1.30;;;;;;;;;;5094053;28;20466;-80
2021/12/24 18:26:04;;;;;;;1.10;1.00;;;;;;;;;;5094624;28;20035;-79
2021/12/24 18:28:30;;;;;;;1.40;1.00;;;;;;;;;;5076378;28;20053;-80
2021/12/24 18:30:55;;;;;;;1.67;1.10;;;;;;;;;;5092745;28;20445;-80
2021/12/24 18:33:21;;;;;;;1.40;1.20;;;;;;;;;;5092928;28;20509;-80
2021/12/24 18:35:46;;;;;;;1.42;1.20;;;;;;;;;;5094289;28;20024;-81
2021/12/24 18:38:11;;;;;;;0.90;0.90;;;;;;;;;;5076685;28;20063;-81
2021/12/24 18:40:38;;;;;;;1.15;1.00;;;;;;;;;;5076776;28;20398;-81
2021/12/24 18:43:04;;;;;;;1.73;1.00;;;;;;;;;;5093188;28;20023;-82
2021/12/24 18:45:31;;;;;;;1.40;1.00;;;;;;;;;;5094374;28;20032;-81
2021/12/24 18:47:57;;;;;;;1.20;1.10;;;;;;;;;;5093966;28;20020;-81
2021/12/24 18:50:23;;;;;;;1.35;0.90;;;;;;;;;;5094367;28;20046;-81
2021/12/24 18:52:49;;;;;;;1.25;1.15;;;;;;;;;;5093820;28;20028;-80
2021/12/24 18:55:16;;;;;;;1.33;1.10;;;;;;;;;;5092482;28;20050;-80
2021/12/24 18:57:42;;;;;;;2.25;1.10;;;;;;;;;;5092727;28;20042;-81
2021/12/24 19:00:08;;;;;;;3.15;1.10;;;;;;;;;;5092422;28;20077;-82
2021/12/24 19:02:33;;;;;;;1.83;1.20;;;;;;;;;;5092390;28;20024;-81
2021/12/24 19:04:59;;;;;;;0.80;0.80;;;;;;;;;;5094339;28;20378;-81
2021/12/24 19:07:24;;;;;;;1.50;0.98;;;;;;;;;;5093600;28;20094;-82
2021/12/24 19:09:50;;;;;;;1.33;1.00;;;;;;;;;;5092795;28;20073;-81
2021/12/24 19:12:16;;;;;;;1.33;1.08;;;;;;;;;;5092625;28;20032;-81
2021/12/24 19:14:42;;;;;;;1.13;1.00;;;;;;;;;;5093880;28;20093;-80
2021/12/24 19:17:09;;;;;;;1.13;0.95;;;;;;;;;;5093814;28;20074;-82
2021/12/24 19:19:35;;;;;;;1.73;0.90;;;;;;;;;;5092373;28;20028;-81
2021/12/24 19:22:02;;;;;;;1.10;1.00;;;;;;;;;;5076046;28;20024;-82
2021/12/24 19:24:28;;;;;;;1.88;1.00;;;;;;;;;;5093632;28;20024;-80
2021/12/24 19:26:53;;;;;;;1.00;1.00;;;;;;;;;;5092685;28;20106;-81
2021/12/24 19:29:23;;;;;;;1.60;1.00;;;;;;;;;;5094227;28;20107;-81
2021/12/24 19:31:52;;;;;;;1.23;0.90;;;;;;;;;;5094250;28;20471;-82
2021/12/24 19:34:18;;;;;;;2.67;1.13;;;;;;;;;;5093517;28;20027;-81
2021/12/24 19:36:43;;;;;;;1.23;1.02;;;;;;;;;;5092697;28;20502;-82
2021/12/24 19:39:08;;;;;;;1.15;1.10;;;;;;;;;;5092448;28;20036;-82
2021/12/24 19:41:34;;;;;;;1.00;1.00;;;;;;;;;;5092305;28;20107;-83
2021/12/24 19:43:59;;;;;;;1.52;1.17;;;;;;;;;;5058285;28;20434;-81
2021/12/24 19:46:25;;;;;;;1.00;1.00;;;;;;;;;;5093340;28;20054;-81
2021/12/24 19:48:50;;;;;;;1.20;1.10;;;;;;;;;;5092367;28;20051;-80
2021/12/24 19:51:16;;;;;;;1.65;1.20;;;;;;;;;;5092070;28;20047;-81
2021/12/24 19:53:41;;;;;;;1.45;1.10;;;;;;;;;;5093183;28;20016;-82
2021/12/24 19:56:06;;;;;;;1.38;1.27;;;;;;;;;;5093527;28;20494;-81
2021/12/24 19:58:32;;;;;;;0.90;0.90;;;;;;;;;;5074992;28;20075;-82
2021/12/24 20:00:57;;;;;;;5.90;1.80;;;;;;;;;;5091960;28;20059;-80
2021/12/24 20:03:23;;;;;;;2.65;1.88;;;;;;;;;;5093799;28;20035;-79
